sensor_id;sensor_type;location;lat;lon;timestamp;P1;durP1;ratioP1;P2;durP2;ratioP2
57263;SDS011;43113;53.124;6.092;2022-09-27T00:01:08;0.95;;;0.35;;
57263;SDS011;43113;53.124;6.092;2022-09-27T00:03:35;1.10;;;0.30;;
57263;SDS011;43113;53.124;6.092;2022-09-27T00:06:02;0.85;;;0.40;;
57263;SDS011;43113;53.124;6.092;2022-09-27T00:08:32;0.75;;;0.30;;
57263;SDS011;43113;53.124;6.092;2022-09-27T00:10:59;0.80;;;0.20;;
57263;SDS011;43113;53.124;6.092;2022-09-27T00:13:26;1.38;;;0.20;;
57263;SDS011;43113;53.124;6.092;2022-09-27T00:15:56;0.70;;;0.30;;
57263;SDS011;43113;53.124;6.092;2022-09-27T00:18:23;4.90;;;0.60;;
57263;SDS011;43113;53.124;6.092;2022-09-27T00:20:49;0.68;;;0.20;;
57263;SDS011;43113;53.124;6.092;2022-09-27T00:23:15;0.43;;;0.30;;
57263;SDS011;43113;53.124;6.092;2022-09-27T00:25:41;0.30;;;0.22;;
57263;SDS011;43113;53.124;6.092;2022-09-27T00:28:07;0.43;;;0.15;;
57263;SDS011;43113;53.124;6.092;2022-09-27T00:30:33;0.43;;;0.15;;
57263;SDS011;43113;53.124;6.092;2022-09-27T00:32:59;0.43;;;0.20;;
57263;SDS011;43113;53.124;6.092;2022-09-27T00:35:25;0.20;;;0.10;;
57263;SDS011;43113;53.124;6.092;2022-09-27T00:37:50;1.80;;;0.15;;
57263;SDS011;43113;53.124;6.092;2022-09-27T00:40:16;0.00;;;0.00;;
57263;SDS011;43113;53.124;6.092;2022-09-27T00:42:42;0.10;;;0.10;;
57263;SDS011;43113;53.124;6.092;2022-09-27T00:45:12;0.25;;;0.20;;
57263;SDS011;43113;53.124;6.092;2022-09-27T00:47:59;0.70;;;0.32;;
57263;SDS011;43113;53.124;6.092;2022-09-27T00:50:36;0.32;;;0.10;;
57263;SDS011;43113;53.124;6.092;2022-09-27T00:55:49;0.55;;;0.30;;
57263;SDS011;43113;53.124;6.092;2022-09-27T00:58:20;1.17;;;0.40;;
57263;SDS011;43113;53.124;6.092;2022-09-27T01:00:52;0.90;;;0.20;;
57263;SDS011;43113;53.124;6.092;2022-09-27T01:03:23;0.30;;;0.22;;
57263;SDS011;43113;53.124;6.092;2022-09-27T01:05:57;0.73;;;0.43;;
57263;SDS011;43113;53.124;6.092;2022-09-27T06:24:19;2.33;;;0.35;;
57263;SDS011;43113;53.124;6.092;2022-09-27T06:26:45;2.55;;;0.60;;
57263;SDS011;43113;53.124;6.092;2022-09-27T06:29:11;2.03;;;0.77;;
57263;SDS011;43113;53.124;6.092;2022-09-27T06:31:39;3.25;;;0.50;;
57263;SDS011;43113;53.124;6.092;2022-09-27T06:34:05;0.57;;;0.40;;
57263;SDS011;43113;53.124;6.092;2022-09-27T06:36:33;6.45;;;1.88;;
57263;SDS011;43113;53.124;6.092;2022-09-27T06:38:58;2.65;;;0.80;;
57263;SDS011;43113;53.124;6.092;2022-09-27T06:41:25;1.27;;;0.70;;
57263;SDS011;43113;53.124;6.092;2022-09-27T06:43:51;0.60;;;0.50;;
57263;SDS011;43113;53.124;6.092;2022-09-27T06:46:17;0.35;;;0.30;;
57263;SDS011;43113;53.124;6.092;2022-09-27T06:48:45;1.33;;;0.63;;
57263;SDS011;43113;53.124;6.092;2022-09-27T06:51:12;2.15;;;0.40;;
57263;SDS011;43113;53.124;6.092;2022-09-27T06:53:37;2.20;;;0.68;;
57263;SDS011;43113;53.124;6.092;2022-09-27T06:56:09;1.33;;;0.35;;
57263;SDS011;43113;53.124;6.092;2022-09-27T06:58:37;0.68;;;0.30;;
57263;SDS011;43113;53.124;6.092;2022-09-27T07:01:25;0.93;;;0.40;;
57263;SDS011;43113;53.124;6.092;2022-09-27T07:03:52;0.55;;;0.20;;
57263;SDS011;43113;53.124;6.092;2022-09-27T07:06:19;0.28;;;0.20;;
57263;SDS011;43113;53.124;6.092;2022-09-27T07:08:51;1.35;;;0.30;;
57263;SDS011;43113;53.124;6.092;2022-09-27T07:11:17;0.75;;;0.30;;
57263;SDS011;43113;53.124;6.092;2022-09-27T07:13:49;1.60;;;0.30;;
57263;SDS011;43113;53.124;6.092;2022-09-27T07:16:16;0.73;;;0.30;;
57263;SDS011;43113;53.124;6.092;2022-09-27T07:18:42;3.00;;;0.85;;
57263;SDS011;43113;53.124;6.092;2022-09-27T07:21:08;3.33;;;0.30;;
57263;SDS011;43113;53.124;6.092;2022-09-27T07:23:34;1.17;;;0.30;;
57263;SDS011;43113;53.124;6.092;2022-09-27T07:26:03;0.20;;;0.20;;
57263;SDS011;43113;53.124;6.092;2022-09-27T07:28:31;0.45;;;0.30;;
57263;SDS011;43113;53.124;6.092;2022-09-27T07:30:57;0.52;;;0.30;;
57263;SDS011;43113;53.124;6.092;2022-09-27T07:33:29;0.38;;;0.25;;
57263;SDS011;43113;53.124;6.092;2022-09-27T07:35:55;0.88;;;0.35;;
57263;SDS011;43113;53.124;6.092;2022-09-27T07:38:21;0.55;;;0.30;;
57263;SDS011;43113;53.124;6.092;2022-09-27T07:40:47;0.30;;;0.30;;
57263;SDS011;43113;53.124;6.092;2022-09-27T07:43:13;1.75;;;0.60;;
57263;SDS011;43113;53.124;6.092;2022-09-27T07:45:39;1.35;;;0.70;;
57263;SDS011;43113;53.124;6.092;2022-09-27T07:48:05;1.60;;;0.60;;
57263;SDS011;43113;53.124;6.092;2022-09-27T07:50:32;0.40;;;0.35;;
57263;SDS011;43113;53.124;6.092;2022-09-27T07:52:58;1.38;;;0.30;;
57263;SDS011;43113;53.124;6.092;2022-09-27T07:55:24;1.48;;;0.30;;
57263;SDS011;43113;53.124;6.092;2022-09-27T07:57:50;3.13;;;1.08;;
57263;SDS011;43113;53.124;6.092;2022-09-27T08:00:16;0.20;;;0.20;;
57263;SDS011;43113;53.124;6.092;2022-09-27T08:02:46;2.88;;;0.65;;
57263;SDS011;43113;53.124;6.092;2022-09-27T08:05:12;0.75;;;0.40;;
57263;SDS011;43113;53.124;6.092;2022-09-27T08:07:38;3.30;;;0.40;;
57263;SDS011;43113;53.124;6.092;2022-09-27T08:10:07;2.53;;;0.40;;
57263;SDS011;43113;53.124;6.092;2022-09-27T08:12:33;1.30;;;0.50;;
57263;SDS011;43113;53.124;6.092;2022-09-27T08:15:00;1.67;;;0.30;;
57263;SDS011;43113;53.124;6.092;2022-09-27T08:17:27;0.22;;;0.20;;
57263;SDS011;43113;53.124;6.092;2022-09-27T08:19:53;1.23;;;0.60;;
57263;SDS011;43113;53.124;6.092;2022-09-27T08:22:19;0.65;;;0.40;;
57263;SDS011;43113;53.124;6.092;2022-09-27T08:24:45;0.30;;;0.30;;
57263;SDS011;43113;53.124;6.092;2022-09-27T08:27:11;1.90;;;0.90;;
57263;SDS011;43113;53.124;6.092;2022-09-27T08:29:38;2.70;;;0.60;;
57263;SDS011;43113;53.124;6.092;2022-09-27T08:32:09;4.85;;;0.60;;
57263;SDS011;43113;53.124;6.092;2022-09-27T08:34:35;1.08;;;0.52;;
57263;SDS011;43113;53.124;6.092;2022-09-27T08:37:02;3.53;;;0.63;;
57263;SDS011;43113;53.124;6.092;2022-09-27T08:39:27;0.65;;;0.30;;
57263;SDS011;43113;53.124;6.092;2022-09-27T08:45:07;2.05;;;0.38;;
57263;SDS011;43113;53.124;6.092;2022-09-27T08:47:43;0.20;;;0.20;;
57263;SDS011;43113;53.124;6.092;2022-09-27T08:50:34;0.63;;;0.28;;
57263;SDS011;43113;53.124;6.092;2022-09-27T08:55:55;3.10;;;0.65;;
57263;SDS011;43113;53.124;6.092;2022-09-27T09:01:11;1.55;;;0.40;;
57263;SDS011;43113;53.124;6.092;2022-09-27T09:03:45;1.48;;;0.20;;
57263;SDS011;43113;53.124;6.092;2022-09-27T09:06:23;0.35;;;0.25;;
57263;SDS011;43113;53.124;6.092;2022-09-27T09:34:38;0.47;;;0.28;;
57263;SDS011;43113;53.124;6.092;2022-09-27T09:39:53;0.00;;;0.00;;
57263;SDS011;43113;53.124;6.092;2022-09-27T09:42:31;1.08;;;0.30;;
57263;SDS011;43113;53.124;6.092;2022-09-27T09:45:25;1.00;;;0.28;;
57263;SDS011;43113;53.124;6.092;2022-09-27T09:50:40;2.08;;;0.30;;
57263;SDS011;43113;53.124;6.092;2022-09-27T09:53:17;0.22;;;0.20;;
57263;SDS011;43113;53.124;6.092;2022-09-27T09:55:45;0.55;;;0.22;;
57263;SDS011;43113;53.124;6.092;2022-09-27T09:58:21;1.02;;;0.40;;
57263;SDS011;43113;53.124;6.092;2022-09-27T10:00:53;1.55;;;0.30;;
57263;SDS011;43113;53.124;6.092;2022-09-27T10:03:24;1.80;;;0.57;;
57263;SDS011;43113;53.124;6.092;2022-09-27T10:05:50;0.45;;;0.32;;
57263;SDS011;43113;53.124;6.092;2022-09-27T10:08:16;3.90;;;0.38;;
57263;SDS011;43113;53.124;6.092;2022-09-27T10:10:45;0.93;;;0.32;;
57263;SDS011;43113;53.124;6.092;2022-09-27T10:13:15;0.77;;;0.45;;
57263;SDS011;43113;53.124;6.092;2022-09-27T10:15:44;2.83;;;0.75;;
57263;SDS011;43113;53.124;6.092;2022-09-27T10:18:28;1.75;;;0.40;;
57263;SDS011;43113;53.124;6.092;2022-09-27T10:20:59;1.35;;;0.80;;
57263;SDS011;43113;53.124;6.092;2022-09-27T10:23:28;1.13;;;0.28;;
57263;SDS011;43113;53.124;6.092;2022-09-27T10:25:58;0.20;;;0.20;;
57263;SDS011;43113;53.124;6.092;2022-09-27T10:28:30;2.85;;;0.40;;
57263;SDS011;43113;53.124;6.092;2022-09-27T10:31:02;0.80;;;0.43;;
57263;SDS011;43113;53.124;6.092;2022-09-27T10:33:34;1.17;;;0.20;;
57263;SDS011;43113;53.124;6.092;2022-09-27T10:36:03;1.30;;;0.38;;
57263;SDS011;43113;53.124;6.092;2022-09-27T10:38:50;1.60;;;0.38;;
57263;SDS011;43113;53.124;6.092;2022-09-27T10:41:22;1.10;;;0.47;;
57263;SDS011;43113;53.124;6.092;2022-09-27T10:43:48;0.43;;;0.20;;
57263;SDS011;43113;53.124;6.092;2022-09-27T10:46:32;0.35;;;0.20;;
57263;SDS011;43113;53.124;6.092;2022-09-27T10:49:18;0.30;;;0.30;;
57263;SDS011;43113;53.124;6.092;2022-09-27T10:51:44;0.30;;;0.13;;
57263;SDS011;43113;53.124;6.092;2022-09-27T10:54:20;1.23;;;0.30;;
57263;SDS011;43113;53.124;6.092;2022-09-27T10:57:22;0.00;;;0.00;;
57263;SDS011;43113;53.124;6.092;2022-09-27T11:02:56;0.00;;;0.00;;
57263;SDS011;43113;53.124;6.092;2022-09-27T11:07:58;0.13;;;0.13;;
57263;SDS011;43113;53.124;6.092;2022-09-27T11:10:34;4.40;;;1.13;;
57263;SDS011;43113;53.124;6.092;2022-09-27T11:15:41;5.20;;;0.52;;
57263;SDS011;43113;53.124;6.092;2022-09-27T11:18:28;0.52;;;0.50;;
57263;SDS011;43113;53.124;6.092;2022-09-27T11:23:57;1.35;;;0.20;;
57263;SDS011;43113;53.124;6.092;2022-09-27T11:37:25;0.20;;;0.20;;
57263;SDS011;43113;53.124;6.092;2022-09-27T11:43:10;0.32;;;0.30;;
57263;SDS011;43113;53.124;6.092;2022-09-27T11:45:53;1.65;;;0.35;;
57263;SDS011;43113;53.124;6.092;2022-09-27T11:56:23;1.00;;;0.40;;
57263;SDS011;43113;53.124;6.092;2022-09-27T12:10:09;0.40;;;0.30;;
57263;SDS011;43113;53.124;6.092;2022-09-27T12:12:38;1.23;;;0.40;;
57263;SDS011;43113;53.124;6.092;2022-09-27T12:15:16;2.17;;;0.93;;
57263;SDS011;43113;53.124;6.092;2022-09-27T12:17:45;0.20;;;0.20;;
57263;SDS011;43113;53.124;6.092;2022-09-27T12:25:18;1.63;;;0.50;;
57263;SDS011;43113;53.124;6.092;2022-09-27T12:31:05;5.75;;;0.73;;
57263;SDS011;43113;53.124;6.092;2022-09-27T12:34:02;0.20;;;0.20;;
57263;SDS011;43113;53.124;6.092;2022-09-27T12:36:59;0.63;;;0.40;;
57263;SDS011;43113;53.124;6.092;2022-09-27T12:39:51;0.80;;;0.28;;
57263;SDS011;43113;53.124;6.092;2022-09-27T12:42:23;1.80;;;0.40;;
57263;SDS011;43113;53.124;6.092;2022-09-27T12:44:52;2.78;;;0.32;;
57263;SDS011;43113;53.124;6.092;2022-09-27T12:52:55;0.38;;;0.20;;
57263;SDS011;43113;53.124;6.092;2022-09-27T13:00:57;0.40;;;0.20;;
57263;SDS011;43113;53.124;6.092;2022-09-27T13:09:11;1.48;;;0.50;;
57263;SDS011;43113;53.124;6.092;2022-09-27T13:11:46;0.32;;;0.32;;
57263;SDS011;43113;53.124;6.092;2022-09-27T13:14:38;0.82;;;0.47;;
57263;SDS011;43113;53.124;6.092;2022-09-27T13:22:48;0.30;;;0.15;;
57263;SDS011;43113;53.124;6.092;2022-09-27T13:28:30;4.38;;;0.40;;
57263;SDS011;43113;53.124;6.092;2022-09-27T13:30:56;0.17;;;0.10;;
57263;SDS011;43113;53.124;6.092;2022-09-27T13:33:29;0.30;;;0.30;;
57263;SDS011;43113;53.124;6.092;2022-09-27T13:41:53;1.30;;;0.70;;
57263;SDS011;43113;53.124;6.092;2022-09-27T13:47:37;1.15;;;0.82;;
57263;SDS011;43113;53.124;6.092;2022-09-27T13:52:41;1.83;;;1.20;;
57263;SDS011;43113;53.124;6.092;2022-09-27T13:58:16;4.82;;;1.50;;
57263;SDS011;43113;53.124;6.092;2022-09-27T14:00:55;1.10;;;0.70;;
57263;SDS011;43113;53.124;6.092;2022-09-27T14:03:31;0.15;;;0.15;;
57263;SDS011;43113;53.124;6.092;2022-09-27T14:06:03;0.22;;;0.22;;
57263;SDS011;43113;53.124;6.092;2022-09-27T14:10:58;1.55;;;0.22;;
57263;SDS011;43113;53.124;6.092;2022-09-27T14:13:26;0.90;;;0.40;;
57263;SDS011;43113;53.124;6.092;2022-09-27T14:15:55;0.40;;;0.17;;
57263;SDS011;43113;53.124;6.092;2022-09-27T14:18:26;0.47;;;0.32;;
57263;SDS011;43113;53.124;6.092;2022-09-27T14:20:55;0.60;;;0.20;;
57263;SDS011;43113;53.124;6.092;2022-09-27T14:23:43;0.25;;;0.20;;
57263;SDS011;43113;53.124;6.092;2022-09-27T14:26:25;0.95;;;0.40;;
57263;SDS011;43113;53.124;6.092;2022-09-27T14:28:52;0.40;;;0.28;;
57263;SDS011;43113;53.124;6.092;2022-09-27T14:31:19;0.47;;;0.32;;
57263;SDS011;43113;53.124;6.092;2022-09-27T14:33:47;0.82;;;0.22;;
57263;SDS011;43113;53.124;6.092;2022-09-27T14:36:25;0.28;;;0.20;;
57263;SDS011;43113;53.124;6.092;2022-09-27T14:39:14;0.30;;;0.20;;
57263;SDS011;43113;53.124;6.092;2022-09-27T14:41:45;0.30;;;0.30;;
57263;SDS011;43113;53.124;6.092;2022-09-27T14:44:13;1.30;;;0.68;;
57263;SDS011;43113;53.124;6.092;2022-09-27T14:46:41;2.13;;;0.50;;
57263;SDS011;43113;53.124;6.092;2022-09-27T14:49:20;0.68;;;0.50;;
57263;SDS011;43113;53.124;6.092;2022-09-27T14:51:51;0.30;;;0.30;;
57263;SDS011;43113;53.124;6.092;2022-09-27T14:54:27;0.90;;;0.38;;
57263;SDS011;43113;53.124;6.092;2022-09-27T14:56:55;1.30;;;0.50;;
57263;SDS011;43113;53.124;6.092;2022-09-27T14:59:27;1.30;;;0.77;;
57263;SDS011;43113;53.124;6.092;2022-09-27T15:01:59;2.28;;;0.50;;
57263;SDS011;43113;53.124;6.092;2022-09-27T15:04:30;1.17;;;0.88;;
57263;SDS011;43113;53.124;6.092;2022-09-27T15:06:56;1.10;;;0.70;;
57263;SDS011;43113;53.124;6.092;2022-09-27T15:09:22;0.45;;;0.40;;
57263;SDS011;43113;53.124;6.092;2022-09-27T15:11:56;1.27;;;0.63;;
57263;SDS011;43113;53.124;6.092;2022-09-27T15:14:29;0.22;;;0.22;;
57263;SDS011;43113;53.124;6.092;2022-09-27T15:16:57;0.22;;;0.22;;
57263;SDS011;43113;53.124;6.092;2022-09-27T15:19:29;0.98;;;0.43;;
57263;SDS011;43113;53.124;6.092;2022-09-27T15:22:20;0.93;;;0.43;;
57263;SDS011;43113;53.124;6.092;2022-09-27T15:24:46;2.53;;;0.70;;
57263;SDS011;43113;53.124;6.092;2022-09-27T15:27:16;0.77;;;0.40;;
57263;SDS011;43113;53.124;6.092;2022-09-27T15:29:50;4.38;;;0.57;;
57263;SDS011;43113;53.124;6.092;2022-09-27T15:32:18;1.92;;;0.55;;
57263;SDS011;43113;53.124;6.092;2022-09-27T15:34:49;0.38;;;0.35;;
57263;SDS011;43113;53.124;6.092;2022-09-27T15:39:50;3.17;;;0.63;;
57263;SDS011;43113;53.124;6.092;2022-09-27T15:42:16;3.67;;;0.68;;
57263;SDS011;43113;53.124;6.092;2022-09-27T15:44:50;2.28;;;1.10;;
57263;SDS011;43113;53.124;6.092;2022-09-27T15:50:01;2.63;;;0.95;;
57263;SDS011;43113;53.124;6.092;2022-09-27T15:52:51;3.80;;;1.10;;
57263;SDS011;43113;53.124;6.092;2022-09-27T15:55:23;1.60;;;0.82;;
57263;SDS011;43113;53.124;6.092;2022-09-27T15:57:54;0.80;;;0.50;;
57263;SDS011;43113;53.124;6.092;2022-09-27T16:00:26;0.30;;;0.30;;
57263;SDS011;43113;53.124;6.092;2022-09-27T16:02:53;0.38;;;0.35;;
57263;SDS011;43113;53.124;6.092;2022-09-27T16:05:19;1.23;;;0.68;;
57263;SDS011;43113;53.124;6.092;2022-09-27T16:07:47;3.30;;;1.23;;
57263;SDS011;43113;53.124;6.092;2022-09-27T16:10:25;3.67;;;0.80;;
57263;SDS011;43113;53.124;6.092;2022-09-27T16:12:54;1.95;;;0.50;;
57263;SDS011;43113;53.124;6.092;2022-09-27T16:15:20;0.60;;;0.50;;
57263;SDS011;43113;53.124;6.092;2022-09-27T16:17:46;5.13;;;2.95;;
57263;SDS011;43113;53.124;6.092;2022-09-27T16:20:21;4.32;;;1.58;;
57263;SDS011;43113;53.124;6.092;2022-09-27T16:22:50;1.90;;;0.80;;
57263;SDS011;43113;53.124;6.092;2022-09-27T16:25:18;0.45;;;0.40;;
57263;SDS011;43113;53.124;6.092;2022-09-27T16:27:44;1.77;;;0.45;;
57263;SDS011;43113;53.124;6.092;2022-09-27T16:30:10;1.08;;;0.70;;
57263;SDS011;43113;53.124;6.092;2022-09-27T16:32:40;0.60;;;0.50;;
57263;SDS011;43113;53.124;6.092;2022-09-27T16:35:07;0.80;;;0.80;;
57263;SDS011;43113;53.124;6.092;2022-09-27T16:37:34;2.58;;;0.90;;
57263;SDS011;43113;53.124;6.092;2022-09-27T16:39:59;0.98;;;0.90;;
57263;SDS011;43113;53.124;6.092;2022-09-27T16:42:25;3.55;;;1.38;;
57263;SDS011;43113;53.124;6.092;2022-09-27T16:44:51;1.85;;;0.85;;
57263;SDS011;43113;53.124;6.092;2022-09-27T16:47:18;0.50;;;0.50;;
57263;SDS011;43113;53.124;6.092;2022-09-27T16:49:44;0.95;;;0.30;;
57263;SDS011;43113;53.124;6.092;2022-09-27T16:52:28;4.35;;;0.95;;
57263;SDS011;43113;53.124;6.092;2022-09-27T16:54:58;0.20;;;0.20;;
57263;SDS011;43113;53.124;6.092;2022-09-27T16:57:25;1.15;;;0.70;;
57263;SDS011;43113;53.124;6.092;2022-09-27T16:59:54;0.52;;;0.40;;
57263;SDS011;43113;53.124;6.092;2022-09-27T17:02:21;0.40;;;0.40;;
57263;SDS011;43113;53.124;6.092;2022-09-27T17:04:48;0.43;;;0.40;;
57263;SDS011;43113;53.124;6.092;2022-09-27T17:07:14;0.85;;;0.30;;
57263;SDS011;43113;53.124;6.092;2022-09-27T17:09:40;1.50;;;1.05;;
57263;SDS011;43113;53.124;6.092;2022-09-27T17:12:06;3.90;;;1.17;;
57263;SDS011;43113;53.124;6.092;2022-09-27T17:14:32;2.28;;;1.13;;
57263;SDS011;43113;53.124;6.092;2022-09-27T17:16:57;4.45;;;1.67;;
57263;SDS011;43113;53.124;6.092;2022-09-27T17:19:23;3.65;;;0.85;;
57263;SDS011;43113;53.124;6.092;2022-09-27T17:21:49;1.75;;;0.82;;
57263;SDS011;43113;53.124;6.092;2022-09-27T17:24:15;2.63;;;0.75;;
57263;SDS011;43113;53.124;6.092;2022-09-27T17:26:41;0.98;;;0.50;;
57263;SDS011;43113;53.124;6.092;2022-09-27T17:29:09;7.68;;;0.75;;
57263;SDS011;43113;53.124;6.092;2022-09-27T17:31:36;1.45;;;0.73;;
57263;SDS011;43113;53.124;6.092;2022-09-27T17:34:03;1.48;;;0.63;;
57263;SDS011;43113;53.124;6.092;2022-09-27T17:36:30;1.98;;;0.90;;
57263;SDS011;43113;53.124;6.092;2022-09-27T17:38:59;1.55;;;0.80;;
57263;SDS011;43113;53.124;6.092;2022-09-27T17:41:26;10.48;;;4.82;;
57263;SDS011;43113;53.124;6.092;2022-09-27T17:43:53;7.57;;;2.78;;
57263;SDS011;43113;53.124;6.092;2022-09-27T17:46:32;8.18;;;3.60;;
57263;SDS011;43113;53.124;6.092;2022-09-27T17:48:59;4.78;;;1.90;;
57263;SDS011;43113;53.124;6.092;2022-09-27T17:51:48;3.85;;;1.73;;
57263;SDS011;43113;53.124;6.092;2022-09-27T17:54:15;5.47;;;2.05;;
57263;SDS011;43113;53.124;6.092;2022-09-27T17:56:44;1.85;;;0.98;;
57263;SDS011;43113;53.124;6.092;2022-09-27T17:59:11;1.90;;;0.80;;
57263;SDS011;43113;53.124;6.092;2022-09-27T18:01:37;2.45;;;0.90;;
57263;SDS011;43113;53.124;6.092;2022-09-27T18:04:04;1.23;;;0.85;;
57263;SDS011;43113;53.124;6.092;2022-09-27T18:06:38;2.08;;;1.17;;
57263;SDS011;43113;53.124;6.092;2022-09-27T18:09:05;1.40;;;0.80;;
57263;SDS011;43113;53.124;6.092;2022-09-27T18:11:35;1.15;;;0.50;;
57263;SDS011;43113;53.124;6.092;2022-09-27T18:14:02;1.27;;;0.88;;
57263;SDS011;43113;53.124;6.092;2022-09-27T18:16:30;0.50;;;0.50;;
57263;SDS011;43113;53.124;6.092;2022-09-27T18:19:01;0.75;;;0.57;;
57263;SDS011;43113;53.124;6.092;2022-09-27T18:21:29;0.65;;;0.40;;
57263;SDS011;43113;53.124;6.092;2022-09-27T18:23:56;1.70;;;0.95;;
57263;SDS011;43113;53.124;6.092;2022-09-27T18:26:23;0.40;;;0.40;;
57263;SDS011;43113;53.124;6.092;2022-09-27T18:28:51;0.43;;;0.38;;
57263;SDS011;43113;53.124;6.092;2022-09-27T18:31:18;0.80;;;0.40;;
57263;SDS011;43113;53.124;6.092;2022-09-27T18:33:46;1.67;;;0.85;;
57263;SDS011;43113;53.124;6.092;2022-09-27T18:38:50;0.65;;;0.57;;
57263;SDS011;43113;53.124;6.092;2022-09-27T18:41:18;0.73;;;0.40;;
57263;SDS011;43113;53.124;6.092;2022-09-27T18:43:45;1.33;;;0.52;;
57263;SDS011;43113;53.124;6.092;2022-09-27T18:46:15;1.33;;;0.70;;
57263;SDS011;43113;53.124;6.092;2022-09-27T18:48:45;1.92;;;0.90;;
57263;SDS011;43113;53.124;6.092;2022-09-27T18:51:16;1.17;;;0.70;;
57263;SDS011;43113;53.124;6.092;2022-09-27T18:53:43;1.10;;;0.50;;
57263;SDS011;43113;53.124;6.092;2022-09-27T18:56:11;2.05;;;0.90;;
57263;SDS011;43113;53.124;6.092;2022-09-27T18:58:38;2.42;;;1.00;;
57263;SDS011;43113;53.124;6.092;2022-09-27T19:01:06;1.35;;;0.90;;
57263;SDS011;43113;53.124;6.092;2022-09-27T19:03:34;1.20;;;0.95;;
57263;SDS011;43113;53.124;6.092;2022-09-27T19:06:01;1.48;;;1.38;;
57263;SDS011;43113;53.124;6.092;2022-09-27T19:08:32;2.88;;;1.52;;
57263;SDS011;43113;53.124;6.092;2022-09-27T19:11:05;2.70;;;1.30;;
57263;SDS011;43113;53.124;6.092;2022-09-27T19:13:31;4.05;;;1.48;;
57263;SDS011;43113;53.124;6.092;2022-09-27T19:15:58;3.53;;;1.58;;
57263;SDS011;43113;53.124;6.092;2022-09-27T19:18:24;3.50;;;1.10;;
57263;SDS011;43113;53.124;6.092;2022-09-27T19:20:51;4.60;;;1.23;;
57263;SDS011;43113;53.124;6.092;2022-09-27T19:23:17;2.20;;;0.88;;
57263;SDS011;43113;53.124;6.092;2022-09-27T19:25:47;2.50;;;1.38;;
57263;SDS011;43113;53.124;6.092;2022-09-27T19:28:16;1.23;;;1.00;;
57263;SDS011;43113;53.124;6.092;2022-09-27T19:30:43;3.30;;;1.10;;
57263;SDS011;43113;53.124;6.092;2022-09-27T19:33:09;1.38;;;0.85;;
57263;SDS011;43113;53.124;6.092;2022-09-27T19:35:35;3.58;;;1.05;;
57263;SDS011;43113;53.124;6.092;2022-09-27T19:38:01;1.25;;;1.00;;
57263;SDS011;43113;53.124;6.092;2022-09-27T19:40:27;1.95;;;1.20;;
57263;SDS011;43113;53.124;6.092;2022-09-27T19:42:55;1.73;;;1.05;;
57263;SDS011;43113;53.124;6.092;2022-09-27T19:45:22;2.53;;;1.20;;
57263;SDS011;43113;53.124;6.092;2022-09-27T19:47:47;1.90;;;1.17;;
57263;SDS011;43113;53.124;6.092;2022-09-27T19:50:13;2.15;;;1.00;;
57263;SDS011;43113;53.124;6.092;2022-09-27T19:52:39;2.97;;;1.38;;
57263;SDS011;43113;53.124;6.092;2022-09-27T19:55:05;3.83;;;1.50;;
57263;SDS011;43113;53.124;6.092;2022-09-27T19:57:31;2.47;;;1.17;;
57263;SDS011;43113;53.124;6.092;2022-09-27T19:59:57;2.65;;;0.98;;
57263;SDS011;43113;53.124;6.092;2022-09-27T20:02:23;3.83;;;1.50;;
57263;SDS011;43113;53.124;6.092;2022-09-27T20:04:48;2.13;;;1.42;;
57263;SDS011;43113;53.124;6.092;2022-09-27T20:07:15;2.03;;;1.40;;
57263;SDS011;43113;53.124;6.092;2022-09-27T20:09:41;1.98;;;1.40;;
57263;SDS011;43113;53.124;6.092;2022-09-27T20:12:07;2.30;;;1.35;;
57263;SDS011;43113;53.124;6.092;2022-09-27T20:14:33;3.30;;;1.27;;
57263;SDS011;43113;53.124;6.092;2022-09-27T20:16:59;3.38;;;1.80;;
57263;SDS011;43113;53.124;6.092;2022-09-27T20:19:24;3.22;;;1.52;;
57263;SDS011;43113;53.124;6.092;2022-09-27T20:21:50;4.40;;;2.08;;
57263;SDS011;43113;53.124;6.092;2022-09-27T20:24:16;2.50;;;1.42;;
57263;SDS011;43113;53.124;6.092;2022-09-27T20:26:41;3.13;;;1.70;;
57263;SDS011;43113;53.124;6.092;2022-09-27T20:29:08;3.80;;;1.85;;
57263;SDS011;43113;53.124;6.092;2022-09-27T20:31:36;3.90;;;1.65;;
57263;SDS011;43113;53.124;6.092;2022-09-27T20:34:05;3.80;;;1.77;;
57263;SDS011;43113;53.124;6.092;2022-09-27T20:36:35;2.58;;;1.42;;
57263;SDS011;43113;53.124;6.092;2022-09-27T20:39:09;2.47;;;1.20;;
57263;SDS011;43113;53.124;6.092;2022-09-27T20:41:38;2.15;;;1.38;;
57263;SDS011;43113;53.124;6.092;2022-09-27T20:44:06;2.90;;;1.50;;
57263;SDS011;43113;53.124;6.092;2022-09-27T20:46:33;3.28;;;1.60;;
57263;SDS011;43113;53.124;6.092;2022-09-27T20:49:04;6.78;;;2.15;;
57263;SDS011;43113;53.124;6.092;2022-09-27T20:51:35;4.80;;;2.13;;
57263;SDS011;43113;53.124;6.092;2022-09-27T20:54:03;2.72;;;1.50;;
57263;SDS011;43113;53.124;6.092;2022-09-27T20:56:32;1.55;;;1.10;;
57263;SDS011;43113;53.124;6.092;2022-09-27T20:58:59;3.00;;;1.52;;
57263;SDS011;43113;53.124;6.092;2022-09-27T21:01:27;2.20;;;1.27;;
57263;SDS011;43113;53.124;6.092;2022-09-27T21:03:58;3.35;;;1.45;;
57263;SDS011;43113;53.124;6.092;2022-09-27T21:06:25;1.75;;;1.38;;
57263;SDS011;43113;53.124;6.092;2022-09-27T21:08:51;3.30;;;1.70;;
57263;SDS011;43113;53.124;6.092;2022-09-27T21:11:18;4.90;;;1.55;;
57263;SDS011;43113;53.124;6.092;2022-09-27T21:13:45;4.00;;;1.85;;
57263;SDS011;43113;53.124;6.092;2022-09-27T21:16:13;2.70;;;1.50;;
57263;SDS011;43113;53.124;6.092;2022-09-27T21:18:41;6.90;;;2.45;;
57263;SDS011;43113;53.124;6.092;2022-09-27T21:21:08;3.40;;;1.90;;
57263;SDS011;43113;53.124;6.092;2022-09-27T21:23:36;3.55;;;1.80;;
57263;SDS011;43113;53.124;6.092;2022-09-27T21:26:13;3.30;;;1.63;;
57263;SDS011;43113;53.124;6.092;2022-09-27T21:31:14;2.92;;;1.10;;
57263;SDS011;43113;53.124;6.092;2022-09-27T21:33:41;2.95;;;1.63;;
57263;SDS011;43113;53.124;6.092;2022-09-27T21:36:10;3.03;;;1.55;;
57263;SDS011;43113;53.124;6.092;2022-09-27T21:38:36;2.50;;;1.50;;
57263;SDS011;43113;53.124;6.092;2022-09-27T21:41:04;3.17;;;1.45;;
57263;SDS011;43113;53.124;6.092;2022-09-27T21:43:32;6.07;;;2.03;;
57263;SDS011;43113;53.124;6.092;2022-09-27T21:46:04;2.10;;;1.33;;
57263;SDS011;43113;53.124;6.092;2022-09-27T21:48:31;4.03;;;1.67;;
57263;SDS011;43113;53.124;6.092;2022-09-27T21:53:52;3.60;;;1.45;;
57263;SDS011;43113;53.124;6.092;2022-09-27T21:56:20;4.13;;;1.92;;
57263;SDS011;43113;53.124;6.092;2022-09-27T21:58:47;3.17;;;1.60;;
57263;SDS011;43113;53.124;6.092;2022-09-27T22:01:20;2.78;;;1.70;;
57263;SDS011;43113;53.124;6.092;2022-09-27T22:03:48;8.75;;;1.98;;
57263;SDS011;43113;53.124;6.092;2022-09-27T22:06:19;4.40;;;1.75;;
57263;SDS011;43113;53.124;6.092;2022-09-27T22:08:47;3.67;;;1.70;;
57263;SDS011;43113;53.124;6.092;2022-09-27T22:11:14;3.65;;;1.80;;
57263;SDS011;43113;53.124;6.092;2022-09-27T22:13:42;4.50;;;2.08;;
57263;SDS011;43113;53.124;6.092;2022-09-27T22:16:09;3.53;;;1.48;;
57263;SDS011;43113;53.124;6.092;2022-09-27T22:18:37;4.30;;;1.73;;
57263;SDS011;43113;53.124;6.092;2022-09-27T22:21:07;3.75;;;1.90;;
57263;SDS011;43113;53.124;6.092;2022-09-27T22:23:33;6.13;;;2.60;;
57263;SDS011;43113;53.124;6.092;2022-09-27T22:26:09;3.47;;;1.90;;
57263;SDS011;43113;53.124;6.092;2022-09-27T22:28:45;3.15;;;1.83;;
57263;SDS011;43113;53.124;6.092;2022-09-27T22:31:12;5.25;;;1.95;;
57263;SDS011;43113;53.124;6.092;2022-09-27T22:33:46;3.15;;;1.80;;
57263;SDS011;43113;53.124;6.092;2022-09-27T22:36:16;5.10;;;1.90;;
57263;SDS011;43113;53.124;6.092;2022-09-27T22:38:42;4.32;;;2.10;;
57263;SDS011;43113;53.124;6.092;2022-09-27T22:41:08;3.35;;;2.10;;
57263;SDS011;43113;53.124;6.092;2022-09-27T22:43:34;3.88;;;2.15;;
57263;SDS011;43113;53.124;6.092;2022-09-27T22:45:59;4.00;;;2.10;;
57263;SDS011;43113;53.124;6.092;2022-09-27T22:48:26;3.85;;;2.13;;
57263;SDS011;43113;53.124;6.092;2022-09-27T22:50:56;3.58;;;2.17;;